createdAt,value
2023-03-05T00:01:44.989Z,60.82
2023-03-05T00:04:15.653Z,60.29
2023-03-05T00:06:44.701Z,60.37
2023-03-05T00:09:14.788Z,61.35
2023-03-05T00:11:43.362Z,61.28
2023-03-05T00:14:12.114Z,60.68
2023-03-05T00:16:41.211Z,61.15
2023-03-05T00:19:09.373Z,60.88
2023-03-05T00:21:39.184Z,61.01
2023-03-05T00:24:10.089Z,61.54
2023-03-05T00:26:40.304Z,61.52
2023-03-05T00:29:09.743Z,61.35
2023-03-05T00:31:39.325Z,61.45
2023-03-05T00:34:09.998Z,61.46
2023-03-05T00:36:41.061Z,61.53
2023-03-05T00:39:09.202Z,61.11
2023-03-05T00:41:37.237Z,61.40
2023-03-05T00:44:06.996Z,61.21
2023-03-05T00:46:35.410Z,61.01
2023-03-05T00:49:04.211Z,62.58
2023-03-05T00:51:32.399Z,62.22
2023-03-05T00:54:00.640Z,61.78
2023-03-05T00:56:29.047Z,62.44
2023-03-05T00:58:57.367Z,61.83
2023-03-05T01:01:28.706Z,61.04
2023-03-05T01:03:58.268Z,60.21
2023-03-05T01:06:26.441Z,59.49
2023-03-05T01:08:56.498Z,59.69
2023-03-05T01:11:25.920Z,59.36
2023-03-05T01:13:54.536Z,59.98
2023-03-05T01:16:22.789Z,59.71
2023-03-05T01:18:52.636Z,59.72
2023-03-05T01:21:21.988Z,59.76
2023-03-05T01:23:50.106Z,59.94
2023-03-05T01:26:18.011Z,60.13
2023-03-05T01:28:46.395Z,59.31
2023-03-05T01:31:14.871Z,59.33
2023-03-05T01:33:42.962Z,58.97
2023-03-05T01:36:15.979Z,59.03
2023-03-05T01:38:44.561Z,59.08
2023-03-05T01:41:14.496Z,58.47
2023-03-05T01:43:43.556Z,59.08
2023-03-05T01:46:28.280Z,59.54
2023-03-05T01:49:04.800Z,58.79
2023-03-05T01:51:39.295Z,58.90
2023-03-05T01:54:10.463Z,59.58
2023-03-05T01:56:40.643Z,60.04
2023-03-05T01:59:09.308Z,59.64
2023-03-05T02:01:42.060Z,59.07
2023-03-05T02:04:12.992Z,58.38
2023-03-05T02:06:44.956Z,59.19
2023-03-05T02:09:13.792Z,58.62
2023-03-05T02:11:43.701Z,58.73
2023-03-05T02:14:11.982Z,59.47
2023-03-05T02:16:40.498Z,59.69
2023-03-05T02:19:11.875Z,60.25
2023-03-05T02:21:44.159Z,61.09
2023-03-05T02:24:14.932Z,60.51
2023-03-05T02:26:44.865Z,60.03
2023-03-05T02:29:18.548Z,60.14
2023-03-05T02:31:47.507Z,60.27
2023-03-05T02:34:16.272Z,59.29
2023-03-05T02:36:46.834Z,59.78
2023-03-05T02:39:15.947Z,60.46
2023-03-05T02:41:44.570Z,60.29
2023-03-05T02:44:13.131Z,60.82
2023-03-05T02:46:41.312Z,60.38
2023-03-05T02:49:09.598Z,60.51
2023-03-05T02:51:38.553Z,60.74
2023-03-05T02:54:09.181Z,60.87
2023-03-05T02:56:38.322Z,60.09
2023-03-05T02:59:06.902Z,60.25
2023-03-05T03:01:36.042Z,60.91
2023-03-05T03:04:04.915Z,60.89
2023-03-05T03:06:33.345Z,61.28
2023-03-05T03:09:01.698Z,60.41
2023-03-05T03:11:32.314Z,60.64
2023-03-05T03:14:00.920Z,61.04
2023-03-05T03:16:29.566Z,60.77
2023-03-05T03:18:57.942Z,60.50
2023-03-05T03:21:27.303Z,60.62
2023-03-05T03:23:55.780Z,60.62
2023-03-05T03:26:23.982Z,59.78
2023-03-05T03:28:53.576Z,60.10
2023-03-05T03:31:21.753Z,60.93
2023-03-05T03:33:49.870Z,61.02
2023-03-05T03:36:18.339Z,60.38
2023-03-05T03:38:46.491Z,61.08
2023-03-05T03:41:14.597Z,61.26
2023-03-05T03:43:42.639Z,61.36
2023-03-05T03:46:12.313Z,61.26
2023-03-05T03:48:40.504Z,61.89
2023-03-05T03:51:09.375Z,62.31
2023-03-05T03:53:37.481Z,62.42
2023-03-05T03:56:06.365Z,62.41
2023-03-05T03:58:34.623Z,62.38
2023-03-05T04:01:02.897Z,62.17
2023-03-05T04:03:32.397Z,61.68
2023-03-05T04:06:00.796Z,61.58
2023-03-05T04:08:29.409Z,61.67
2023-03-05T04:10:57.760Z,61.73
2023-03-05T04:13:25.809Z,61.41
2023-03-05T04:15:54.782Z,61.28
2023-03-05T04:18:23.233Z,61.21
2023-03-05T04:20:53.002Z,61.01
2023-03-05T04:23:21.594Z,60.58
2023-03-05T04:25:49.817Z,60.71
2023-03-05T04:28:22.910Z,60.36
2023-03-05T04:30:51.501Z,60.51
2023-03-05T04:33:19.906Z,60.95
2023-03-05T04:35:49.093Z,60.91
2023-03-05T04:38:18.489Z,61.10
2023-03-05T04:40:48.688Z,61.68
2023-03-05T04:43:16.834Z,61.56
2023-03-05T04:45:45.740Z,62.21
2023-03-05T04:48:13.982Z,62.20
2023-03-05T04:50:42.524Z,62.34
2023-03-05T04:53:10.639Z,62.49
2023-03-05T04:55:40.132Z,62.36
2023-03-05T04:58:08.399Z,63.28
2023-03-05T05:00:36.647Z,62.68
2023-03-05T05:03:05.176Z,62.49
2023-03-05T05:05:33.341Z,61.74
2023-03-05T05:08:01.496Z,61.62
2023-03-05T05:10:30.145Z,61.13
2023-03-05T05:12:59.623Z,61.19
2023-03-05T05:15:28.322Z,60.22
2023-03-05T05:17:56.606Z,59.89
2023-03-05T05:20:24.741Z,59.40
2023-03-05T05:22:53.023Z,60.40
2023-03-05T05:25:21.506Z,60.16
2023-03-05T05:27:49.969Z,59.83
2023-03-05T05:30:19.604Z,59.52
2023-03-05T05:32:47.674Z,58.62
2023-03-05T05:35:15.893Z,58.29
2023-03-05T05:37:44.283Z,57.73
2023-03-05T05:40:13.626Z,57.84
2023-03-05T05:42:42.091Z,57.81
2023-03-05T05:45:11.876Z,57.78
2023-03-05T05:47:41.406Z,57.92
2023-03-05T05:50:10.559Z,58.12
2023-03-05T05:52:38.706Z,58.12
2023-03-05T05:55:08.161Z,58.56
2023-03-05T05:57:36.577Z,58.61
2023-03-05T06:00:08.948Z,58.38
2023-03-05T06:02:42.064Z,58.49
2023-03-05T06:05:14.725Z,58.24
2023-03-05T06:07:43.324Z,58.44
2023-03-05T06:10:12.643Z,58.32
2023-03-05T06:12:41.037Z,57.89
2023-03-05T06:15:10.380Z,57.94
2023-03-05T06:17:38.755Z,59.16
2023-03-05T06:20:10.324Z,58.84
2023-03-05T06:22:39.370Z,59.64
2023-03-05T06:25:09.412Z,59.51
2023-03-05T06:27:38.678Z,60.09
2023-03-05T06:30:08.501Z,60.35
2023-03-05T06:32:36.587Z,60.32
2023-03-05T06:35:06.908Z,59.91
2023-03-05T06:37:36.463Z,60.12
2023-03-05T06:40:07.855Z,60.17
2023-03-05T06:42:36.438Z,60.10
2023-03-05T06:45:06.543Z,60.34
2023-03-05T06:47:35.171Z,60.06
2023-03-05T06:50:03.818Z,59.68
2023-03-05T06:52:32.033Z,59.74
2023-03-05T06:55:01.564Z,58.99
2023-03-05T06:57:29.894Z,59.39
2023-03-05T06:59:58.106Z,58.89
2023-03-05T07:02:26.151Z,59.06
2023-03-05T07:04:54.671Z,58.97
2023-03-05T07:07:22.769Z,59.11
2023-03-05T07:09:53.080Z,59.24
2023-03-05T07:12:22.950Z,58.39
2023-03-05T07:14:51.115Z,58.64
2023-03-05T07:17:19.861Z,58.94
2023-03-05T07:19:48.332Z,58.37
2023-03-05T07:22:16.758Z,58.68
2023-03-05T07:24:44.955Z,58.25
2023-03-05T07:27:13.763Z,59.03
2023-03-05T07:29:43.395Z,58.33
2023-03-05T07:32:11.400Z,58.77
2023-03-05T07:34:39.853Z,58.90
2023-03-05T07:37:08.645Z,59.36
2023-03-05T07:39:36.631Z,59.25
2023-03-05T07:42:06.365Z,59.48
2023-03-05T07:44:51.832Z,59.21
2023-03-05T07:47:19.973Z,59.32
2023-03-05T07:49:48.032Z,59.49
2023-03-05T07:52:16.502Z,59.36
2023-03-05T07:54:44.723Z,59.49
2023-03-05T07:57:13.583Z,59.38
2023-03-05T07:59:41.719Z,58.90
2023-03-05T08:02:12.977Z,58.89
2023-03-05T08:04:42.263Z,58.86
2023-03-05T08:07:10.723Z,59.06
2023-03-05T08:09:39.073Z,59.00
2023-03-05T08:12:09.023Z,59.34
2023-03-05T08:14:37.297Z,59.52
2023-03-05T08:17:06.390Z,59.74
2023-03-05T08:19:35.873Z,59.78
2023-03-05T08:22:05.180Z,59.28
2023-03-05T08:24:34.002Z,59.12
2023-03-05T08:27:02.674Z,59.62
2023-03-05T08:29:31.347Z,59.90
2023-03-05T08:31:59.852Z,60.57
2023-03-05T08:34:28.188Z,60.85
2023-03-05T08:36:57.905Z,61.71
2023-03-05T08:39:26.220Z,61.79
2023-03-05T08:41:54.811Z,61.79
2023-03-05T08:44:22.914Z,60.71
2023-03-05T08:46:51.043Z,60.35
2023-03-05T08:49:19.187Z,60.99
2023-03-05T08:51:47.532Z,61.22
2023-03-05T08:54:16.994Z,61.10
2023-03-05T08:56:46.131Z,61.18
2023-03-05T08:59:14.533Z,61.02
2023-03-05T09:01:42.983Z,61.43
2023-03-05T09:04:11.181Z,60.44
2023-03-05T09:06:40.657Z,60.40
2023-03-05T09:09:10.121Z,61.13
2023-03-05T09:11:39.809Z,61.46
2023-03-05T09:14:08.511Z,61.88
2023-03-05T09:16:38.747Z,61.95
2023-03-05T09:19:08.979Z,61.21
2023-03-05T09:21:37.525Z,60.16
2023-03-05T09:24:06.542Z,59.27
2023-03-05T09:26:34.684Z,58.39
2023-03-05T09:29:06.968Z,58.11
2023-03-05T09:31:35.487Z,58.68
2023-03-05T09:34:05.465Z,58.62
2023-03-05T09:36:33.920Z,58.76
2023-03-05T09:39:04.232Z,59.43
2023-03-05T09:41:44.010Z,60.28
2023-03-05T09:44:26.541Z,60.49
2023-03-05T09:46:56.934Z,60.44
2023-03-05T09:49:34.863Z,61.19
2023-03-05T09:52:09.017Z,61.13
2023-03-05T09:54:42.159Z,61.30
2023-03-05T09:57:18.665Z,62.10
2023-03-05T09:59:54.542Z,62.13
2023-03-05T10:02:27.509Z,62.01
2023-03-05T10:05:02.092Z,62.18
2023-03-05T10:07:33.800Z,61.81
2023-03-05T10:10:05.744Z,61.23
2023-03-05T10:12:42.849Z,60.60
2023-03-05T10:15:17.173Z,60.50
2023-03-05T10:18:15.090Z,60.45
2023-03-05T10:20:52.306Z,59.65
2023-03-05T10:23:46.088Z,59.97
2023-03-05T10:26:36.709Z,59.28
2023-03-05T10:29:20.246Z,57.41
2023-03-05T10:32:00.521Z,57.59
2023-03-05T10:34:56.779Z,57.48
2023-03-05T10:37:56.022Z,57.29
2023-03-05T10:40:32.699Z,55.19
2023-03-05T10:43:09.013Z,54.35
2023-03-05T10:45:41.121Z,53.93
2023-03-05T10:48:17.362Z,54.49
2023-03-05T10:50:50.164Z,53.62
2023-03-05T10:53:26.245Z,53.00
2023-03-05T10:55:56.580Z,53.32
2023-03-05T10:58:26.443Z,53.13
2023-03-05T11:01:07.376Z,52.16
2023-03-05T11:03:55.181Z,52.23
2023-03-05T11:06:39.712Z,53.36
2023-03-05T11:09:18.117Z,53.84
2023-03-05T11:11:46.761Z,54.18
2023-03-05T11:14:30.978Z,55.10
2023-03-05T11:16:59.063Z,55.79
2023-03-05T11:19:32.967Z,56.57
2023-03-05T11:22:14.339Z,55.71
2023-03-05T11:24:42.683Z,53.55
2023-03-05T11:27:27.247Z,53.56
2023-03-05T11:29:55.929Z,53.42
2023-03-05T11:32:26.348Z,52.38
2023-03-05T11:34:58.276Z,51.09
2023-03-05T11:37:28.522Z,52.09
2023-03-05T11:40:20.947Z,52.24
2023-03-05T11:42:55.866Z,51.65
2023-03-05T11:45:25.973Z,50.77
2023-03-05T11:47:56.644Z,51.16
2023-03-05T11:50:28.347Z,51.24
2023-03-05T11:53:00.725Z,51.08
2023-03-05T11:55:32.339Z,51.88
2023-03-05T11:58:13.470Z,52.29
2023-03-05T12:00:45.254Z,52.64
2023-03-05T12:03:17.888Z,52.68
2023-03-05T12:05:51.925Z,52.57
2023-03-05T12:08:25.592Z,52.33
2023-03-05T12:10:53.591Z,51.20
2023-03-05T12:13:28.191Z,48.30
2023-03-05T12:16:12.591Z,47.89
2023-03-05T12:18:49.072Z,48.01
2023-03-05T12:21:28.917Z,49.06
2023-03-05T12:24:01.472Z,50.03
2023-03-05T12:27:06.812Z,50.77
2023-03-05T12:29:42.268Z,51.07
2023-03-05T12:32:39.986Z,51.30
2023-03-05T12:35:24.302Z,51.83
2023-03-05T12:38:29.720Z,50.13
2023-03-05T12:41:35.701Z,50.49
2023-03-05T12:44:24.950Z,50.90
2023-03-05T12:47:23.693Z,50.73
2023-03-05T12:49:52.366Z,51.03
2023-03-05T12:52:29.642Z,51.09
2023-03-05T12:55:05.196Z,50.76
2023-03-05T12:57:34.502Z,50.91
2023-03-05T13:00:11.086Z,50.74
2023-03-05T13:02:42.759Z,49.97
2023-03-05T13:05:21.954Z,49.50
2023-03-05T13:07:50.846Z,49.30
2023-03-05T13:10:26.432Z,49.25
2023-03-05T13:12:56.571Z,48.76
2023-03-05T13:15:27.123Z,49.12
2023-03-05T13:17:58.583Z,49.43
2023-03-05T13:20:37.780Z,49.52
2023-03-05T13:23:22.461Z,49.23
2023-03-05T13:26:05.252Z,48.61
2023-03-05T13:28:34.279Z,48.23
2023-03-05T13:31:05.100Z,47.80
2023-03-05T13:33:35.191Z,47.49
2023-03-05T13:36:04.589Z,47.69
2023-03-05T13:38:36.793Z,47.86
2023-03-05T13:41:09.912Z,48.39
2023-03-05T13:43:45.116Z,49.26
2023-03-05T13:46:13.734Z,49.46
2023-03-05T13:48:42.011Z,49.39
2023-03-05T13:51:11.987Z,50.18
2023-03-05T13:53:40.156Z,50.27
2023-03-05T13:56:15.723Z,49.56
2023-03-05T13:58:55.078Z,48.49
2023-03-05T14:01:30.436Z,47.93
2023-03-05T14:04:02.819Z,48.01
2023-03-05T14:06:32.318Z,49.18
2023-03-05T14:09:08.542Z,48.88
2023-03-05T14:11:38.096Z,49.21
2023-03-05T14:14:09.460Z,49.49
2023-03-05T14:16:37.774Z,50.10
2023-03-05T14:19:07.396Z,49.08
2023-03-05T14:21:47.290Z,49.76
2023-03-05T14:24:22.811Z,50.14
2023-03-05T14:26:56.528Z,49.65
2023-03-05T14:29:26.008Z,49.23
2023-03-05T14:31:57.186Z,47.99
2023-03-05T14:34:31.554Z,48.86
2023-03-05T14:37:03.596Z,49.87
2023-03-05T14:39:41.271Z,51.16
2023-03-05T14:42:32.600Z,49.51
2023-03-05T14:45:02.312Z,49.30
2023-03-05T14:47:32.000Z,49.47
2023-03-05T14:50:00.187Z,49.78
2023-03-05T14:52:28.556Z,50.60
2023-03-05T14:54:57.178Z,52.33
2023-03-05T14:57:28.516Z,52.70
2023-03-05T14:59:58.208Z,53.17
2023-03-05T15:02:28.511Z,53.37
2023-03-05T15:04:57.293Z,53.46
2023-03-05T15:07:30.673Z,54.15
2023-03-05T15:09:59.879Z,53.46
2023-03-05T15:12:28.025Z,53.17
2023-03-05T15:14:57.909Z,52.43
2023-03-05T15:17:34.728Z,52.66
2023-03-05T15:20:07.001Z,54.05
2023-03-05T15:22:35.517Z,55.14
2023-03-05T15:25:04.036Z,55.59
2023-03-05T15:27:32.490Z,55.96
2023-03-05T15:30:02.120Z,56.52
2023-03-05T15:32:31.521Z,57.23
2023-03-05T15:35:00.840Z,57.29
2023-03-05T15:37:30.856Z,59.18
2023-03-05T15:39:58.931Z,60.58
2023-03-05T15:42:27.428Z,61.18
2023-03-05T15:44:56.196Z,60.96
2023-03-05T15:47:26.132Z,61.70
2023-03-05T15:49:54.544Z,61.05
2023-03-05T15:52:22.529Z,60.01
2023-03-05T15:54:50.727Z,58.20
2023-03-05T15:57:21.829Z,58.38
2023-03-05T15:59:50.264Z,58.58
2023-03-05T16:02:19.126Z,58.91
2023-03-05T16:04:48.528Z,58.34
2023-03-05T16:07:17.185Z,58.34
2023-03-05T16:09:49.415Z,58.64
2023-03-05T16:12:23.570Z,59.41
2023-03-05T16:14:52.226Z,60.53
2023-03-05T16:17:23.459Z,60.02
2023-03-05T16:19:56.956Z,61.24
2023-03-05T16:22:24.970Z,61.03
2023-03-05T16:24:53.430Z,61.59
2023-03-05T16:27:21.488Z,62.00
2023-03-05T16:29:51.168Z,61.01
2023-03-05T16:32:19.402Z,60.76
2023-03-05T16:34:47.741Z,60.78
2023-03-05T16:37:21.550Z,60.77
2023-03-05T16:39:49.837Z,60.22
2023-03-05T16:42:18.390Z,60.33
2023-03-05T16:44:47.469Z,59.52
2023-03-05T16:47:15.655Z,60.09
2023-03-05T16:49:43.822Z,60.08
2023-03-05T16:52:18.806Z,60.36
2023-03-05T16:54:49.357Z,60.78
2023-03-05T16:57:17.323Z,60.53
2023-03-05T16:59:45.678Z,61.14
2023-03-05T17:02:15.393Z,61.47
2023-03-05T17:04:44.124Z,61.92
2023-03-05T17:07:12.240Z,61.76
2023-03-05T17:09:41.010Z,61.98
2023-03-05T17:12:10.498Z,62.07
2023-03-05T17:14:39.002Z,62.60
2023-03-05T17:17:07.629Z,62.53
2023-03-05T17:19:36.008Z,63.13
2023-03-05T17:22:05.401Z,62.73
2023-03-05T17:24:34.127Z,62.76
2023-03-05T17:27:02.538Z,62.41
2023-03-05T17:29:32.702Z,62.15
2023-03-05T17:32:00.813Z,62.18
2023-03-05T17:34:36.071Z,62.03
2023-03-05T17:37:06.611Z,62.13
2023-03-05T17:39:34.799Z,62.02
2023-03-05T17:42:04.032Z,61.59
2023-03-05T17:44:33.944Z,62.02
2023-03-05T17:47:02.212Z,61.51
2023-03-05T17:49:30.992Z,61.94
2023-03-05T17:51:59.321Z,61.65
2023-03-05T17:54:27.946Z,62.07
2023-03-05T17:56:57.832Z,61.97
2023-03-05T17:59:27.178Z,62.31
2023-03-05T18:01:57.568Z,61.82
2023-03-05T18:04:26.170Z,61.92
2023-03-05T18:06:55.252Z,62.10
2023-03-05T18:09:23.786Z,62.53
2023-03-05T18:11:51.846Z,61.87
2023-03-05T18:14:20.000Z,62.11
2023-03-05T18:16:48.861Z,61.75
2023-03-05T18:19:18.700Z,61.73
2023-03-05T18:21:46.878Z,61.39
2023-03-05T18:24:15.032Z,61.39
2023-03-05T18:26:43.154Z,62.33
2023-03-05T18:29:11.558Z,62.31
2023-03-05T18:31:39.749Z,61.48
2023-03-05T18:34:08.004Z,61.59
2023-03-05T18:36:37.606Z,61.96
2023-03-05T18:39:05.717Z,61.81
2023-03-05T18:41:34.084Z,62.11
2023-03-05T18:44:04.452Z,62.53
2023-03-05T18:46:32.849Z,62.38
2023-03-05T18:49:00.901Z,62.61
2023-03-05T18:51:30.532Z,62.57
2023-03-05T18:54:00.432Z,63.03
2023-03-05T18:56:29.162Z,62.56
2023-03-05T18:58:58.912Z,62.49
2023-03-05T19:01:27.586Z,63.03
2023-03-05T19:03:56.688Z,63.20
2023-03-05T19:06:25.167Z,63.44
2023-03-05T19:08:57.498Z,63.65
2023-03-05T19:11:27.196Z,63.81
2023-03-05T19:13:57.022Z,64.06
2023-03-05T19:16:28.064Z,64.17
2023-03-05T19:19:04.887Z,63.99
2023-03-05T19:21:33.332Z,64.86
2023-03-05T19:24:02.253Z,64.97
2023-03-05T19:26:33.011Z,64.93
2023-03-05T19:29:02.637Z,64.70
2023-03-05T19:31:31.331Z,65.46
2023-03-05T19:33:59.646Z,65.29
2023-03-05T19:36:27.780Z,65.22
2023-03-05T19:38:56.810Z,64.83
2023-03-05T19:41:26.325Z,65.21
2023-03-05T19:43:56.768Z,64.89
2023-03-05T19:46:24.874Z,64.38
2023-03-05T19:48:53.584Z,64.53
2023-03-05T19:51:25.116Z,64.52
2023-03-05T19:53:53.727Z,64.14
2023-03-05T19:56:22.397Z,64.86
2023-03-05T19:58:50.671Z,64.59
2023-03-05T20:01:22.744Z,65.32
2023-03-05T20:03:53.554Z,64.86
2023-03-05T20:06:22.788Z,65.04
2023-03-05T20:08:50.941Z,65.41
2023-03-05T20:11:20.979Z,65.04
2023-03-05T20:13:50.210Z,65.28
2023-03-05T20:16:21.742Z,64.71
2023-03-05T20:18:52.956Z,65.11
2023-03-05T20:21:23.239Z,65.44
2023-03-05T20:23:52.602Z,65.08
2023-03-05T20:26:21.434Z,64.97
2023-03-05T20:28:50.297Z,65.35
2023-03-05T20:31:21.184Z,65.40
2023-03-05T20:33:49.688Z,65.51
2023-03-05T20:36:17.980Z,64.88
2023-03-05T20:38:46.497Z,65.01
2023-03-05T20:41:16.709Z,65.14
2023-03-05T20:43:47.679Z,65.05
2023-03-05T20:46:18.049Z,65.36
2023-03-05T20:48:49.524Z,65.46
2023-03-05T20:51:22.516Z,65.37
2023-03-05T20:53:51.455Z,64.44
2023-03-05T20:56:19.529Z,65.10
2023-03-05T20:58:49.019Z,65.04
2023-03-05T21:01:17.618Z,64.74
2023-03-05T21:03:47.462Z,64.98
2023-03-05T21:06:16.711Z,65.07
2023-03-05T21:08:45.307Z,65.44
2023-03-05T21:11:15.071Z,65.00
2023-03-05T21:13:44.989Z,65.00
2023-03-05T21:16:19.075Z,64.39
2023-03-05T21:18:51.388Z,63.93
2023-03-05T21:21:22.867Z,63.20
2023-03-05T21:23:55.624Z,63.30
2023-03-05T21:26:25.635Z,63.48
2023-03-05T21:28:55.773Z,63.68
2023-03-05T21:31:25.861Z,63.41
2023-03-05T21:33:56.441Z,63.05
2023-03-05T21:36:27.124Z,63.25
2023-03-05T21:39:00.542Z,63.50
2023-03-05T21:41:31.473Z,63.47
2023-03-05T21:44:04.440Z,63.48
2023-03-05T21:46:35.403Z,63.06
2023-03-05T21:49:07.132Z,63.15
2023-03-05T21:51:46.991Z,63.38
2023-03-05T21:54:16.954Z,63.11
2023-03-05T21:56:48.061Z,63.18
2023-03-05T21:59:17.551Z,62.73
2023-03-05T22:01:47.285Z,62.57
2023-03-05T22:04:18.796Z,62.96
2023-03-05T22:06:49.697Z,62.68
2023-03-05T22:09:18.987Z,63.14
2023-03-05T22:11:48.557Z,63.67
2023-03-05T22:14:18.098Z,64.01
2023-03-05T22:16:46.583Z,64.24
2023-03-05T22:19:16.235Z,63.57
2023-03-05T22:21:44.191Z,63.15
2023-03-05T22:24:12.188Z,62.11
2023-03-05T22:26:42.283Z,61.63
2023-03-05T22:29:11.765Z,61.52
2023-03-05T22:31:40.556Z,60.72
2023-03-05T22:34:08.607Z,60.71
2023-03-05T22:36:38.106Z,60.99
2023-03-05T22:39:06.752Z,60.87
2023-03-05T22:41:34.996Z,61.43
2023-03-05T22:44:03.987Z,61.08
2023-03-05T22:46:32.524Z,61.47
2023-03-05T22:49:00.519Z,61.14
2023-03-05T22:51:29.523Z,61.61
2023-03-05T22:53:59.485Z,61.78
2023-03-05T22:56:28.075Z,61.90
2023-03-05T22:58:56.146Z,62.66
2023-03-05T23:01:26.946Z,62.29
2023-03-05T23:04:03.666Z,62.39
2023-03-05T23:06:31.742Z,62.46
2023-03-05T23:09:01.254Z,62.11
2023-03-05T23:11:29.429Z,62.31
2023-03-05T23:13:57.480Z,62.55
2023-03-05T23:16:25.510Z,62.79
2023-03-05T23:18:54.560Z,62.76
2023-03-05T23:21:22.681Z,62.57
2023-03-05T23:23:52.625Z,62.40
2023-03-05T23:26:22.034Z,63.05
2023-03-05T23:28:50.135Z,62.93
2023-03-05T23:31:18.841Z,63.24
2023-03-05T23:33:47.044Z,63.49
2023-03-05T23:36:15.558Z,63.23
2023-03-05T23:38:43.689Z,63.30
2023-03-05T23:41:11.815Z,63.06
2023-03-05T23:43:41.137Z,63.05
2023-03-05T23:46:12.190Z,63.42
2023-03-05T23:48:40.152Z,63.27
2023-03-05T23:51:09.342Z,63.49
2023-03-05T23:53:37.686Z,62.88
2023-03-05T23:56:10.548Z,63.09
2023-03-05T23:58:39.604Z,63.68
